createdAt,value
2023-03-28T00:00:40.725Z,6.67
2023-03-28T00:01:40.709Z,6.35
2023-03-28T00:02:40.763Z,6.35
2023-03-28T00:03:40.894Z,6.67
2023-03-28T00:04:40.697Z,6.35
2023-03-28T00:05:40.731Z,6.35
2023-03-28T00:06:40.639Z,6.35
2023-03-28T00:07:40.652Z,6.67
2023-03-28T00:08:40.632Z,6.67
2023-03-28T00:09:40.605Z,6.67
2023-03-28T00:10:40.600Z,6.35
2023-03-28T00:11:40.589Z,6.35
2023-03-28T00:12:40.578Z,6.35
2023-03-28T00:13:40.565Z,6.35
2023-03-28T00:14:40.543Z,6.03
2023-03-28T00:15:40.585Z,6.35
2023-03-28T00:16:40.510Z,6.99
2023-03-28T00:17:40.543Z,6.35
2023-03-28T00:18:40.482Z,6.03
2023-03-28T00:19:40.484Z,6.99
2023-03-28T00:20:40.490Z,6.35
2023-03-28T00:21:40.446Z,6.35
2023-03-28T00:22:40.449Z,6.03
2023-03-28T00:23:40.420Z,6.35
2023-03-28T00:24:40.410Z,6.99
2023-03-28T00:25:40.407Z,6.35
2023-03-28T00:26:40.389Z,6.67
2023-03-28T00:27:40.377Z,6.67
2023-03-28T00:28:40.373Z,6.67
2023-03-28T00:29:40.343Z,6.03
2023-03-28T00:30:40.329Z,6.99
2023-03-28T00:31:40.433Z,6.67
2023-03-28T00:32:40.304Z,6.35
2023-03-28T00:33:40.302Z,6.03
2023-03-28T00:34:40.281Z,6.67
2023-03-28T00:35:40.292Z,6.99
2023-03-28T00:36:40.288Z,6.35
2023-03-28T00:37:40.246Z,6.67
2023-03-28T00:38:40.236Z,6.67
2023-03-28T00:39:40.213Z,5.71
2023-03-28T00:40:40.199Z,6.99
2023-03-28T00:41:40.195Z,6.35
2023-03-28T00:42:40.180Z,6.67
2023-03-28T00:43:40.170Z,6.35
2023-03-28T00:44:40.160Z,6.67
2023-03-28T00:45:40.145Z,6.67
2023-03-28T00:46:40.202Z,6.67
2023-03-28T00:47:40.152Z,6.67
2023-03-28T00:48:40.111Z,6.35
2023-03-28T00:49:40.082Z,6.67
2023-03-28T00:50:40.085Z,6.35
2023-03-28T00:51:40.059Z,6.67
2023-03-28T00:52:40.109Z,6.67
2023-03-28T00:53:40.062Z,6.35
2023-03-28T00:54:40.025Z,6.35
2023-03-28T00:55:40.006Z,6.03
2023-03-28T00:56:40.026Z,6.67
2023-03-28T00:57:39.988Z,6.35
2023-03-28T00:58:39.966Z,5.71
2023-03-28T00:59:39.967Z,6.03
2023-03-28T01:00:39.949Z,6.67
2023-03-28T01:01:39.950Z,6.99
2023-03-28T01:02:39.996Z,6.67
2023-03-28T01:03:39.995Z,6.67
2023-03-28T01:04:39.892Z,6.99
2023-03-28T01:05:39.884Z,6.99
2023-03-28T01:06:39.881Z,6.99
2023-03-28T01:07:39.848Z,6.03
2023-03-28T01:08:39.857Z,6.35
2023-03-28T01:09:39.820Z,6.67
2023-03-28T01:10:39.808Z,6.35
2023-03-28T01:11:39.838Z,6.67
2023-03-28T01:12:39.781Z,6.67
2023-03-28T01:13:39.774Z,6.35
2023-03-28T01:14:39.774Z,6.99
2023-03-28T01:15:39.745Z,6.67
2023-03-28T01:16:39.820Z,6.35
2023-03-28T01:17:39.758Z,6.99
2023-03-28T01:18:39.702Z,6.67
2023-03-28T01:19:39.706Z,6.67
2023-03-28T01:20:39.693Z,6.35
2023-03-28T01:21:39.683Z,6.35
2023-03-28T01:22:39.667Z,6.67
2023-03-28T01:23:39.652Z,6.67
2023-03-28T01:24:39.661Z,6.67
2023-03-28T01:25:39.620Z,6.35
2023-03-28T01:26:39.606Z,6.67
2023-03-28T01:27:39.590Z,7.32
2023-03-28T01:28:39.583Z,6.99
2023-03-28T01:29:39.562Z,6.03
2023-03-28T01:30:39.548Z,6.67
2023-03-28T01:31:39.552Z,6.35
2023-03-28T01:32:39.584Z,6.67
2023-03-28T01:33:39.509Z,6.67
2023-03-28T01:34:39.497Z,6.35
2023-03-28T01:35:39.511Z,6.03
2023-03-28T01:36:39.473Z,6.35
2023-03-28T01:37:39.464Z,6.35
2023-03-28T01:38:39.446Z,6.35
2023-03-28T01:39:39.440Z,6.03
2023-03-28T01:40:39.460Z,6.35
2023-03-28T01:41:39.410Z,6.35
2023-03-28T01:42:39.401Z,6.35
2023-03-28T01:43:39.388Z,6.35
2023-03-28T01:44:39.366Z,6.35
2023-03-28T01:45:39.396Z,6.67
2023-03-28T01:46:39.346Z,6.99
2023-03-28T01:47:39.387Z,6.67
2023-03-28T01:48:39.333Z,6.67
2023-03-28T01:49:39.314Z,6.35
2023-03-28T01:50:39.291Z,6.67
2023-03-28T01:51:39.285Z,6.03
2023-03-28T01:52:39.273Z,6.35
2023-03-28T01:53:39.252Z,6.35
2023-03-28T01:54:39.247Z,6.99
2023-03-28T01:55:41.716Z,6.67
2023-03-28T01:56:39.285Z,6.35
2023-03-28T01:57:39.310Z,6.35
2023-03-28T01:58:39.192Z,6.35
2023-03-28T01:59:39.180Z,6.67
2023-03-28T02:00:39.160Z,6.35
2023-03-28T02:01:39.194Z,6.67
2023-03-28T02:02:39.376Z,6.35
2023-03-28T02:03:39.148Z,6.03
2023-03-28T02:04:39.114Z,6.35
2023-03-28T02:05:39.106Z,6.35
2023-03-28T02:06:39.090Z,6.35
2023-03-28T02:07:39.082Z,6.35
2023-03-28T02:08:39.075Z,6.35
2023-03-28T02:09:39.048Z,6.67
2023-03-28T02:10:39.038Z,6.99
2023-03-28T02:11:39.025Z,6.35
2023-03-28T02:12:39.044Z,6.35
2023-03-28T02:13:39.016Z,6.03
2023-03-28T02:14:38.979Z,6.35
2023-03-28T02:15:38.974Z,6.35
2023-03-28T02:16:39.006Z,6.67
2023-03-28T02:17:39.002Z,6.03
2023-03-28T02:18:38.951Z,6.35
2023-03-28T02:19:38.931Z,6.35
2023-03-28T02:20:38.920Z,6.67
2023-03-28T02:21:38.900Z,6.35
2023-03-28T02:22:38.886Z,6.35
2023-03-28T02:23:38.879Z,6.03
2023-03-28T02:24:38.858Z,6.35
2023-03-28T02:25:38.855Z,6.67
2023-03-28T02:26:38.836Z,6.35
2023-03-28T02:27:38.818Z,6.35
2023-03-28T02:28:38.841Z,6.03
2023-03-28T02:29:38.801Z,6.35
2023-03-28T02:30:38.785Z,6.03
2023-03-28T02:31:38.845Z,6.67
2023-03-28T02:32:38.782Z,6.03
2023-03-28T02:33:38.768Z,6.67
2023-03-28T02:34:38.730Z,6.03
2023-03-28T02:35:38.738Z,6.03
2023-03-28T02:36:38.710Z,6.35
2023-03-28T02:37:38.692Z,6.03
2023-03-28T02:38:38.682Z,6.03
2023-03-28T02:39:38.673Z,6.03
2023-03-28T02:40:38.656Z,6.35
2023-03-28T02:41:38.650Z,6.35
2023-03-28T02:42:38.632Z,6.35
2023-03-28T02:43:38.624Z,6.03
2023-03-28T02:44:38.791Z,6.35
2023-03-28T02:45:38.601Z,6.35
2023-03-28T02:46:38.734Z,6.35
2023-03-28T02:47:38.571Z,6.35
2023-03-28T02:48:38.566Z,6.35
2023-03-28T02:49:49.495Z,6.35
2023-03-28T02:50:39.568Z,6.35
2023-03-28T02:51:38.528Z,6.35
2023-03-28T02:52:38.510Z,6.03
2023-03-28T02:53:38.505Z,6.03
2023-03-28T02:54:38.473Z,5.71
2023-03-28T02:55:38.461Z,6.67
2023-03-28T02:56:38.480Z,6.03
2023-03-28T02:57:38.474Z,6.67
2023-03-28T02:58:38.423Z,6.35
2023-03-28T02:59:38.419Z,6.67
2023-03-28T03:00:38.431Z,6.03
2023-03-28T03:01:38.460Z,6.03
2023-03-28T03:02:38.407Z,5.71
2023-03-28T03:03:38.416Z,6.35
2023-03-28T03:04:38.352Z,5.71
2023-03-28T03:05:38.338Z,6.03
2023-03-28T03:06:38.326Z,6.35
2023-03-28T03:07:38.313Z,5.71
2023-03-28T03:08:38.300Z,6.35
2023-03-28T03:09:38.289Z,6.03
2023-03-28T03:10:38.278Z,6.35
2023-03-28T03:11:38.279Z,6.67
2023-03-28T03:12:38.255Z,6.35
2023-03-28T03:13:38.235Z,6.35
2023-03-28T03:14:38.217Z,6.35
2023-03-28T03:15:38.258Z,6.67
2023-03-28T03:16:38.368Z,5.71
2023-03-28T03:17:38.247Z,6.03
2023-03-28T03:18:38.175Z,6.67
2023-03-28T03:19:38.189Z,5.71
2023-03-28T03:20:38.147Z,6.67
2023-03-28T03:21:38.121Z,5.71
2023-03-28T03:22:38.130Z,6.35
2023-03-28T03:23:38.107Z,6.35
2023-03-28T03:24:38.082Z,5.71
2023-03-28T03:25:38.098Z,6.35
2023-03-28T03:26:38.062Z,6.35
2023-03-28T03:27:38.048Z,6.35
2023-03-28T03:28:38.033Z,6.03
2023-03-28T03:29:38.457Z,6.35
2023-03-28T03:30:38.001Z,6.35
2023-03-28T03:31:38.051Z,6.35
2023-03-28T03:32:38.036Z,6.67
2023-03-28T03:33:37.975Z,6.03
2023-03-28T03:34:37.966Z,5.71
2023-03-28T03:35:38.036Z,6.35
2023-03-28T03:36:37.937Z,6.35
2023-03-28T03:37:37.924Z,6.35
2023-03-28T03:38:37.900Z,6.35
2023-03-28T03:39:37.893Z,6.03
2023-03-28T03:40:37.888Z,6.35
2023-03-28T03:41:37.861Z,6.67
2023-03-28T03:42:37.859Z,6.35
2023-03-28T03:43:37.838Z,5.71
2023-03-28T03:44:37.827Z,6.35
2023-03-28T03:45:37.829Z,6.67
2023-03-28T03:46:37.818Z,6.35
2023-03-28T03:47:37.851Z,6.03
2023-03-28T03:48:37.798Z,6.03
2023-03-28T03:49:38.797Z,6.03
2023-03-28T03:50:37.751Z,6.03
2023-03-28T03:51:37.728Z,6.35
2023-03-28T03:52:37.721Z,5.71
2023-03-28T03:53:37.712Z,6.03
2023-03-28T03:54:38.472Z,6.03
2023-03-28T03:55:37.689Z,6.03
2023-03-28T03:56:37.706Z,6.35
2023-03-28T03:57:37.670Z,6.35
2023-03-28T03:58:37.637Z,6.03
2023-03-28T03:59:37.632Z,6.03
2023-03-28T04:00:37.653Z,6.03
2023-03-28T04:01:37.657Z,6.35
2023-03-28T04:02:37.689Z,6.35
2023-03-28T04:03:37.611Z,6.03
2023-03-28T04:04:37.593Z,6.35
2023-03-28T04:05:37.553Z,6.03
2023-03-28T04:06:37.535Z,5.71
2023-03-28T04:07:37.553Z,6.03
2023-03-28T04:08:37.510Z,6.03
2023-03-28T04:09:37.499Z,6.03
2023-03-28T04:10:37.485Z,5.71
2023-03-28T04:11:37.471Z,6.03
2023-03-28T04:12:37.486Z,6.03
2023-03-28T04:13:37.447Z,6.35
2023-03-28T04:14:37.425Z,6.67
2023-03-28T04:15:37.446Z,5.71
2023-03-28T04:16:41.088Z,6.35
2023-03-28T04:17:37.412Z,5.71
2023-03-28T04:18:37.377Z,6.03
2023-03-28T04:19:37.361Z,6.35
2023-03-28T04:20:37.383Z,6.03
2023-03-28T04:21:37.339Z,6.03
2023-03-28T04:22:45.413Z,5.71
2023-03-28T04:23:38.350Z,6.03
2023-03-28T04:24:37.303Z,6.35
2023-03-28T04:25:37.283Z,6.35
2023-03-28T04:26:37.278Z,5.71
2023-03-28T04:27:37.259Z,6.03
2023-03-28T04:28:37.248Z,6.03
2023-03-28T04:29:37.233Z,5.71
2023-03-28T04:30:37.230Z,6.03
2023-03-28T04:31:37.280Z,6.03
2023-03-28T04:32:37.264Z,6.35
2023-03-28T04:33:37.184Z,6.35
2023-03-28T04:34:38.563Z,6.35
2023-03-28T04:35:37.207Z,5.71
2023-03-28T04:36:37.176Z,6.03
2023-03-28T04:37:37.140Z,5.38
2023-03-28T04:38:37.129Z,6.03
2023-03-28T04:39:37.110Z,6.35
2023-03-28T04:40:37.103Z,5.71
2023-03-28T04:41:37.111Z,6.03
2023-03-28T04:42:37.068Z,6.03
2023-03-28T04:43:37.076Z,6.35
2023-03-28T04:44:37.055Z,6.03
2023-03-28T04:45:37.082Z,6.03
2023-03-28T04:46:37.018Z,6.03
2023-03-28T04:47:37.049Z,6.35
2023-03-28T04:48:36.996Z,5.38
2023-03-28T04:49:36.976Z,6.35
2023-03-28T04:50:36.976Z,5.38
2023-03-28T04:51:36.957Z,6.03
2023-03-28T04:52:36.984Z,5.71
2023-03-28T04:53:36.929Z,6.03
2023-03-28T04:54:36.923Z,6.03
2023-03-28T04:55:36.915Z,6.03
2023-03-28T04:56:36.930Z,6.35
2023-03-28T04:57:36.888Z,6.35
2023-03-28T04:58:36.881Z,6.35
2023-03-28T04:59:36.852Z,6.03
2023-03-28T05:00:36.850Z,5.71
2023-03-28T05:01:36.868Z,6.67
2023-03-28T05:02:36.848Z,6.35
2023-03-28T05:03:36.808Z,6.35
2023-03-28T05:04:36.788Z,6.03
2023-03-28T05:05:36.778Z,5.38
2023-03-28T05:06:36.757Z,6.35
2023-03-28T05:07:36.765Z,5.71
2023-03-28T05:08:36.765Z,5.71
2023-03-28T05:09:36.729Z,5.71
2023-03-28T05:10:36.711Z,6.35
2023-03-28T05:11:36.692Z,6.03
2023-03-28T05:12:36.678Z,5.38
2023-03-28T05:13:36.683Z,6.35
2023-03-28T05:14:36.650Z,6.35
2023-03-28T05:15:36.663Z,6.67
2023-03-28T05:16:36.666Z,6.03
2023-03-28T05:17:36.650Z,6.35
2023-03-28T05:18:36.600Z,6.03
2023-03-28T05:19:36.612Z,6.35
2023-03-28T05:20:36.571Z,5.71
2023-03-28T05:21:36.562Z,6.03
2023-03-28T05:22:36.546Z,6.03
2023-03-28T05:23:36.547Z,5.71
2023-03-28T05:24:37.025Z,5.71
2023-03-28T05:25:36.528Z,6.03
2023-03-28T05:26:36.513Z,5.38
2023-03-28T05:27:36.489Z,5.71
2023-03-28T05:28:36.477Z,6.03
2023-03-28T05:29:36.474Z,6.35
2023-03-28T05:30:36.457Z,5.38
2023-03-28T05:31:36.466Z,5.71
2023-03-28T05:32:36.426Z,6.03
2023-03-28T05:33:36.411Z,5.71
2023-03-28T05:34:36.414Z,6.03
2023-03-28T05:35:36.427Z,6.03
2023-03-28T05:36:36.389Z,5.38
2023-03-28T05:37:36.363Z,5.71
2023-03-28T05:38:36.351Z,6.35
2023-03-28T05:39:36.332Z,6.03
2023-03-28T05:40:36.364Z,6.03
2023-03-28T05:41:36.315Z,5.38
2023-03-28T05:42:36.295Z,5.71
2023-03-28T05:43:36.303Z,6.03
2023-03-28T05:44:36.264Z,6.03
2023-03-28T05:45:36.294Z,5.71
2023-03-28T05:46:36.236Z,6.03
2023-03-28T05:47:36.368Z,5.71
2023-03-28T05:48:36.221Z,6.03
2023-03-28T05:49:36.232Z,5.38
2023-03-28T05:50:36.198Z,5.71
2023-03-28T05:51:36.183Z,6.03
2023-03-28T05:52:36.188Z,5.38
2023-03-28T05:53:36.164Z,6.03
2023-03-28T05:54:36.139Z,5.38
2023-03-28T05:55:36.146Z,5.38
2023-03-28T05:56:36.218Z,6.03
2023-03-28T05:57:36.105Z,5.71
2023-03-28T05:58:36.097Z,5.06
2023-03-28T05:59:36.074Z,6.35
2023-03-28T06:00:36.057Z,5.71
2023-03-28T06:01:36.057Z,6.03
2023-03-28T06:02:36.123Z,5.71
2023-03-28T06:03:36.079Z,5.38
2023-03-28T06:04:36.064Z,5.71
2023-03-28T06:05:35.997Z,6.03
2023-03-28T06:06:35.992Z,5.71
2023-03-28T06:07:42.684Z,5.71
2023-03-28T06:08:36.986Z,5.71
2023-03-28T06:09:35.946Z,6.03
2023-03-28T06:10:35.925Z,5.71
2023-03-28T06:11:35.923Z,5.38
2023-03-28T06:12:35.943Z,6.03
2023-03-28T06:13:35.890Z,6.03
2023-03-28T06:14:35.874Z,5.71
2023-03-28T06:15:35.873Z,6.03
2023-03-28T06:16:35.938Z,6.03
2023-03-28T06:17:35.900Z,6.03
2023-03-28T06:18:35.829Z,6.03
2023-03-28T06:19:35.838Z,6.03
2023-03-28T06:20:35.810Z,5.38
2023-03-28T06:21:35.816Z,6.35
2023-03-28T06:22:35.772Z,6.03
2023-03-28T06:23:35.767Z,6.03
2023-03-28T06:24:35.758Z,6.03
2023-03-28T06:25:35.749Z,6.03
2023-03-28T06:26:35.719Z,5.38
2023-03-28T06:27:35.734Z,5.38
2023-03-28T06:28:35.720Z,5.71
2023-03-28T06:29:35.687Z,5.38
2023-03-28T06:30:35.681Z,5.38
2023-03-28T06:31:35.695Z,5.71
2023-03-28T06:32:35.672Z,5.38
2023-03-28T06:33:35.648Z,5.38
2023-03-28T06:34:35.629Z,6.03
2023-03-28T06:35:35.613Z,5.71
2023-03-28T06:36:35.607Z,6.03
2023-03-28T06:37:35.587Z,5.71
2023-03-28T06:38:35.575Z,5.38
2023-03-28T06:39:35.564Z,5.38
2023-03-28T06:40:35.556Z,5.71
2023-03-28T06:41:35.531Z,6.03
2023-03-28T06:42:35.528Z,5.71
2023-03-28T06:43:35.520Z,5.38
2023-03-28T06:44:35.524Z,5.38
2023-03-28T06:45:35.483Z,6.35
2023-03-28T06:46:35.534Z,5.38
2023-03-28T06:47:35.508Z,6.03
2023-03-28T06:48:36.559Z,6.03
2023-03-28T06:49:35.438Z,5.38
2023-03-28T06:50:35.428Z,5.06
2023-03-28T06:51:35.413Z,6.03
2023-03-28T06:52:35.399Z,5.71
2023-03-28T06:53:35.395Z,5.71
2023-03-28T06:54:35.374Z,5.38
2023-03-28T06:55:35.359Z,5.71
2023-03-28T06:56:35.400Z,5.38
2023-03-28T06:57:35.329Z,5.38
2023-03-28T06:58:35.320Z,5.71
2023-03-28T06:59:35.312Z,5.71
2023-03-28T07:00:35.311Z,5.06
2023-03-28T07:01:35.293Z,6.03
2023-03-28T07:02:35.372Z,5.71
2023-03-28T07:03:35.359Z,5.38
2023-03-28T07:04:35.258Z,5.71
2023-03-28T07:05:35.232Z,5.71
2023-03-28T07:06:35.221Z,5.71
2023-03-28T07:07:35.223Z,6.03
2023-03-28T07:08:35.187Z,5.38
2023-03-28T07:09:35.186Z,5.71
2023-03-28T07:10:35.172Z,5.38
2023-03-28T07:11:35.163Z,5.38
2023-03-28T07:12:35.136Z,5.38
2023-03-28T07:13:35.136Z,5.71
2023-03-28T07:14:35.129Z,5.06
2023-03-28T07:15:35.108Z,5.71
2023-03-28T07:16:35.229Z,5.38
2023-03-28T07:17:35.090Z,6.03
2023-03-28T07:18:35.069Z,5.71
2023-03-28T07:19:35.052Z,5.38
2023-03-28T07:20:35.045Z,5.38
2023-03-28T07:21:35.022Z,6.03
2023-03-28T07:22:35.018Z,5.71
2023-03-28T07:23:35.005Z,5.38
2023-03-28T07:24:35.002Z,5.38
2023-03-28T07:25:34.986Z,5.71
2023-03-28T07:26:34.973Z,5.71
2023-03-28T07:27:34.959Z,5.06
2023-03-28T07:28:34.941Z,5.71
2023-03-28T07:29:34.941Z,5.06
2023-03-28T07:30:34.910Z,5.71
2023-03-28T07:31:34.944Z,5.38
2023-03-28T07:32:43.250Z,5.71
2023-03-28T07:33:37.780Z,5.71
2023-03-28T07:34:34.863Z,6.03
2023-03-28T07:35:34.947Z,5.38
2023-03-28T07:36:34.842Z,5.71
2023-03-28T07:37:34.842Z,5.06
2023-03-28T07:38:34.805Z,6.03
2023-03-28T07:39:34.878Z,5.38
2023-03-28T07:40:34.818Z,5.71
2023-03-28T07:41:34.774Z,6.35
2023-03-28T07:42:34.762Z,5.71
2023-03-28T07:43:34.848Z,5.38
2023-03-28T07:44:34.810Z,5.38
2023-03-28T07:45:34.766Z,5.71
2023-03-28T07:46:34.713Z,5.71
2023-03-28T07:47:34.774Z,6.03
2023-03-28T07:48:34.721Z,5.38
2023-03-28T07:49:34.671Z,5.71
2023-03-28T07:50:34.660Z,5.06
2023-03-28T07:51:34.646Z,5.71
2023-03-28T07:52:34.638Z,6.03
2023-03-28T07:53:34.614Z,6.03
2023-03-28T07:54:34.611Z,5.71
2023-03-28T07:55:37.220Z,5.38
2023-03-28T07:56:35.664Z,5.71
2023-03-28T07:57:34.559Z,5.71
2023-03-28T07:58:34.567Z,5.38
2023-03-28T07:59:34.567Z,5.38
2023-03-28T08:00:34.520Z,5.71
2023-03-28T08:01:34.508Z,6.03
2023-03-28T08:02:34.545Z,5.06
2023-03-28T08:03:34.637Z,5.06
2023-03-28T08:04:34.499Z,5.71
2023-03-28T08:05:34.477Z,5.38
2023-03-28T08:06:34.450Z,5.38
2023-03-28T08:07:34.454Z,5.06
2023-03-28T08:08:34.424Z,5.71
2023-03-28T08:09:34.408Z,5.06
2023-03-28T08:10:34.390Z,5.38
2023-03-28T08:11:34.377Z,5.38
2023-03-28T08:12:34.388Z,5.71
2023-03-28T08:13:34.361Z,6.03
2023-03-28T08:14:34.342Z,5.06
2023-03-28T08:15:34.366Z,5.38
2023-03-28T08:16:34.394Z,5.38
2023-03-28T08:17:34.355Z,5.38
2023-03-28T08:18:34.303Z,5.06
2023-03-28T08:19:34.276Z,5.38
2023-03-28T08:20:34.318Z,5.71
2023-03-28T08:21:34.257Z,5.38
2023-03-28T08:22:34.245Z,5.71
2023-03-28T08:23:34.235Z,5.71
2023-03-28T08:24:36.166Z,5.38
2023-03-28T08:25:34.205Z,5.71
2023-03-28T08:26:34.193Z,5.38
2023-03-28T08:27:34.183Z,5.38
2023-03-28T08:28:34.179Z,5.71
2023-03-28T08:29:34.159Z,6.03
2023-03-28T08:30:34.141Z,5.71
2023-03-28T08:31:34.235Z,5.38
2023-03-28T08:32:34.170Z,4.74
2023-03-28T08:33:34.101Z,5.06
2023-03-28T08:34:34.124Z,5.06
2023-03-28T08:35:34.099Z,5.71
2023-03-28T08:36:34.092Z,6.03
2023-03-28T08:37:34.061Z,5.71
2023-03-28T08:38:34.038Z,5.38
2023-03-28T08:39:34.030Z,5.38
2023-03-28T08:40:34.019Z,5.38
2023-03-28T08:41:34.001Z,5.38
2023-03-28T08:42:33.997Z,5.71
2023-03-28T08:43:33.986Z,5.38
2023-03-28T08:44:33.975Z,5.71
2023-03-28T08:45:33.965Z,5.38
2023-03-28T08:46:33.984Z,5.38
2023-03-28T08:47:33.991Z,5.06
2023-03-28T08:48:33.924Z,5.38
2023-03-28T08:49:33.910Z,5.38
2023-03-28T08:50:33.899Z,5.71
2023-03-28T08:51:33.881Z,6.03
2023-03-28T08:52:33.890Z,5.38
2023-03-28T08:53:33.862Z,5.38
2023-03-28T08:54:33.840Z,5.38
2023-03-28T08:55:33.832Z,6.03
2023-03-28T08:56:33.822Z,5.06
2023-03-28T08:57:33.808Z,5.06
2023-03-28T08:58:33.793Z,5.71
2023-03-28T08:59:33.774Z,6.03
2023-03-28T09:00:33.779Z,4.74
2023-03-28T09:01:33.795Z,5.71
2023-03-28T09:02:33.866Z,5.38
2023-03-28T09:03:33.823Z,4.74
2023-03-28T09:04:33.722Z,4.74
2023-03-28T09:05:33.697Z,4.74
2023-03-28T09:06:33.683Z,5.06
2023-03-28T09:07:33.683Z,5.06
2023-03-28T09:08:33.750Z,5.06
2023-03-28T09:09:33.660Z,5.71
2023-03-28T09:10:33.643Z,5.06
2023-03-28T09:11:33.629Z,5.38
2023-03-28T09:12:33.606Z,6.03
2023-03-28T09:13:33.612Z,5.38
2023-03-28T09:14:33.596Z,5.71
2023-03-28T09:15:33.573Z,5.38
2023-03-28T09:16:33.621Z,5.71
2023-03-28T09:17:33.591Z,5.38
2023-03-28T09:18:33.539Z,5.71
2023-03-28T09:19:44.839Z,5.71
2023-03-28T09:20:34.540Z,5.38
2023-03-28T09:21:33.502Z,5.71
2023-03-28T09:22:33.489Z,5.71
2023-03-28T09:23:33.466Z,5.71
2023-03-28T09:24:33.501Z,5.71
2023-03-28T09:25:33.441Z,5.38
2023-03-28T09:26:33.428Z,5.71
2023-03-28T09:27:33.426Z,5.71
2023-03-28T09:28:33.401Z,5.71
2023-03-28T09:29:33.396Z,5.38
2023-03-28T09:30:33.377Z,6.03
2023-03-28T09:31:33.430Z,5.38
2023-03-28T09:32:33.374Z,5.06
2023-03-28T09:33:33.337Z,5.38
2023-03-28T09:34:33.320Z,6.03
2023-03-28T09:35:33.359Z,5.38
2023-03-28T09:36:45.463Z,4.74
2023-03-28T09:37:34.307Z,5.71
2023-03-28T09:38:33.284Z,5.38
2023-03-28T09:39:33.262Z,5.71
2023-03-28T09:40:33.294Z,5.06
2023-03-28T09:41:33.228Z,5.06
2023-03-28T09:42:33.236Z,5.38
2023-03-28T09:43:33.219Z,5.38
2023-03-28T09:44:38.440Z,5.71
2023-03-28T09:45:33.188Z,5.38
2023-03-28T09:46:33.172Z,5.38
2023-03-28T09:47:33.275Z,5.38
2023-03-28T09:48:33.254Z,5.71
2023-03-28T09:49:33.134Z,5.06
2023-03-28T09:50:33.127Z,5.71
2023-03-28T09:51:33.105Z,5.71
2023-03-28T09:52:33.097Z,5.06
2023-03-28T09:53:33.445Z,5.06
2023-03-28T09:54:33.075Z,5.06
2023-03-28T09:55:33.765Z,5.06
2023-03-28T09:56:33.087Z,5.38
2023-03-28T09:57:33.022Z,5.71
2023-03-28T09:58:33.015Z,5.06
2023-03-28T09:59:32.993Z,5.38
2023-03-28T10:00:32.996Z,5.06
2023-03-28T10:01:33.001Z,5.71
2023-03-28T10:02:33.090Z,5.38
2023-03-28T10:03:32.952Z,5.38
2023-03-28T10:04:32.961Z,5.38
2023-03-28T10:05:32.927Z,5.06
2023-03-28T10:06:32.913Z,5.71
2023-03-28T10:07:32.903Z,5.06
2023-03-28T10:08:32.896Z,5.06
2023-03-28T10:09:32.874Z,5.38
2023-03-28T10:10:32.844Z,5.06
2023-03-28T10:11:32.829Z,5.38
2023-03-28T10:12:32.852Z,5.38
2023-03-28T10:13:32.824Z,5.71
2023-03-28T10:14:32.805Z,5.38
2023-03-28T10:15:32.822Z,5.38
2023-03-28T10:16:32.770Z,5.38
2023-03-28T10:17:34.729Z,5.38
2023-03-28T10:18:32.740Z,5.38
2023-03-28T10:19:32.727Z,5.38
2023-03-28T10:20:32.731Z,5.06
2023-03-28T10:21:32.715Z,5.38
2023-03-28T10:22:32.698Z,5.06
2023-03-28T10:23:32.689Z,5.71
2023-03-28T10:24:32.682Z,5.71
2023-03-28T10:25:32.652Z,5.38
2023-03-28T10:26:32.645Z,5.71
2023-03-28T10:27:32.646Z,5.38
2023-03-28T10:28:32.641Z,5.06
2023-03-28T10:29:32.612Z,4.74
2023-03-28T10:30:32.593Z,5.38
2023-03-28T10:31:32.641Z,5.38
2023-03-28T10:32:32.600Z,5.38
2023-03-28T10:33:32.558Z,5.38
2023-03-28T10:34:32.539Z,5.06
2023-03-28T10:35:32.573Z,5.38
2023-03-28T10:36:32.540Z,5.38
2023-03-28T10:37:32.504Z,5.06
2023-03-28T10:38:32.481Z,5.71
2023-03-28T10:39:32.559Z,5.71
2023-03-28T10:40:32.585Z,5.38
2023-03-28T10:41:32.453Z,5.38
2023-03-28T10:42:32.433Z,5.38
2023-03-28T10:43:32.455Z,5.38
2023-03-28T10:44:32.455Z,4.74
2023-03-28T10:45:32.443Z,5.38
2023-03-28T10:46:32.565Z,5.38
2023-03-28T10:47:32.392Z,5.06
2023-03-28T10:48:32.409Z,4.74
2023-03-28T10:49:32.352Z,6.03
2023-03-28T10:50:33.528Z,5.38
2023-03-28T10:51:32.332Z,5.38
2023-03-28T10:52:32.312Z,5.06
2023-03-28T10:53:32.302Z,5.38
2023-03-28T10:54:32.317Z,5.38
2023-03-28T10:55:32.280Z,5.71
2023-03-28T10:56:32.265Z,5.38
2023-03-28T10:57:32.253Z,5.71
2023-03-28T10:58:32.245Z,4.42
2023-03-28T10:59:32.226Z,5.71
2023-03-28T11:00:32.250Z,5.06
2023-03-28T11:01:33.489Z,5.71
2023-03-28T11:02:32.280Z,5.38
2023-03-28T11:03:32.233Z,5.38
2023-03-28T11:04:32.154Z,5.06
2023-03-28T11:05:32.142Z,5.71
2023-03-28T11:06:32.132Z,5.71
2023-03-28T11:07:32.117Z,5.38
2023-03-28T11:08:32.121Z,5.71
2023-03-28T11:09:32.097Z,5.38
2023-03-28T11:10:32.086Z,5.71
2023-03-28T11:11:32.063Z,5.38
2023-03-28T11:12:38.076Z,5.38
2023-03-28T11:13:33.094Z,5.38
2023-03-28T11:14:32.036Z,5.38
2023-03-28T11:15:32.018Z,4.74
2023-03-28T11:16:32.094Z,5.06
2023-03-28T11:17:32.047Z,5.38
2023-03-28T11:18:32.002Z,4.74
2023-03-28T11:19:31.970Z,5.38
2023-03-28T11:20:31.956Z,5.71
2023-03-28T11:21:31.938Z,5.38
2023-03-28T11:22:31.924Z,5.38
2023-03-28T11:23:31.924Z,5.06
2023-03-28T11:24:31.898Z,6.03
2023-03-28T11:25:31.890Z,6.03
2023-03-28T11:26:31.882Z,5.38
2023-03-28T11:27:31.869Z,5.38
2023-03-28T11:28:31.855Z,5.71
2023-03-28T11:29:42.668Z,4.42
2023-03-28T11:30:32.863Z,5.38
2023-03-28T11:31:31.855Z,5.38
2023-03-28T11:32:31.854Z,5.38
2023-03-28T11:33:31.792Z,5.38
2023-03-28T11:34:31.781Z,5.38
2023-03-28T11:35:31.851Z,5.06
2023-03-28T11:36:31.749Z,5.06
2023-03-28T11:37:31.736Z,5.06
2023-03-28T11:38:31.722Z,5.38
2023-03-28T11:39:31.710Z,5.71
2023-03-28T11:40:31.698Z,5.38
2023-03-28T11:41:31.684Z,5.06
2023-03-28T11:42:31.692Z,5.38
2023-03-28T11:43:31.657Z,5.38
2023-03-28T11:44:31.638Z,5.38
2023-03-28T11:45:47.841Z,5.38
2023-03-28T11:46:32.744Z,5.06
2023-03-28T11:47:31.679Z,5.06
2023-03-28T11:48:31.623Z,5.38
2023-03-28T11:49:31.582Z,5.71
2023-03-28T11:50:31.579Z,5.06
2023-03-28T11:51:31.551Z,5.06
2023-03-28T11:52:31.534Z,5.38
2023-03-28T11:53:31.529Z,5.71
2023-03-28T11:54:31.524Z,5.06
2023-03-28T11:55:31.522Z,5.06
2023-03-28T11:56:31.490Z,5.38
2023-03-28T11:57:31.473Z,5.38
2023-03-28T11:58:31.470Z,5.38
2023-03-28T11:59:31.456Z,5.06
2023-03-28T12:00:33.970Z,5.38
2023-03-28T12:01:31.476Z,5.71
2023-03-28T12:02:31.565Z,5.06
2023-03-28T12:03:31.603Z,5.71
2023-03-28T12:04:31.461Z,5.38
2023-03-28T12:05:31.367Z,5.38
2023-03-28T12:06:31.366Z,4.74
2023-03-28T12:07:31.352Z,6.03
2023-03-28T12:08:31.329Z,5.06
2023-03-28T12:09:31.328Z,5.71
2023-03-28T12:10:31.312Z,5.38
2023-03-28T12:11:31.327Z,5.06
2023-03-28T12:12:31.281Z,5.38
2023-03-28T12:13:31.271Z,5.71
2023-03-28T12:14:31.269Z,5.38
2023-03-28T12:15:31.237Z,5.38
2023-03-28T12:16:31.249Z,5.06
2023-03-28T12:17:31.239Z,5.38
2023-03-28T12:18:31.210Z,5.38
2023-03-28T12:19:31.193Z,6.03
2023-03-28T12:20:31.209Z,5.06
2023-03-28T12:21:31.172Z,5.06
2023-03-28T12:22:31.166Z,5.06
2023-03-28T12:23:31.136Z,6.03
2023-03-28T12:24:31.140Z,5.38
2023-03-28T12:25:31.143Z,5.38
2023-03-28T12:26:31.113Z,5.71
2023-03-28T12:27:31.096Z,5.06
2023-03-28T12:28:31.072Z,5.38
2023-03-28T12:29:31.066Z,5.38
2023-03-28T12:30:31.081Z,5.71
2023-03-28T12:31:31.094Z,6.03
2023-03-28T12:32:31.133Z,5.38
2023-03-28T12:33:31.035Z,5.38
2023-03-28T12:34:31.005Z,5.71
2023-03-28T12:35:31.048Z,5.38
2023-03-28T12:36:31.007Z,5.71
2023-03-28T12:37:30.968Z,5.38
2023-03-28T12:38:30.952Z,5.38
2023-03-28T12:39:30.942Z,5.38
2023-03-28T12:40:30.924Z,5.06
2023-03-28T12:41:30.924Z,5.38
2023-03-28T12:42:30.926Z,5.71
2023-03-28T12:43:30.901Z,5.71
2023-03-28T12:44:30.878Z,4.74
2023-03-28T12:45:30.883Z,5.38
2023-03-28T12:46:30.985Z,5.71
2023-03-28T12:47:30.867Z,5.38
2023-03-28T12:48:30.816Z,5.38
2023-03-28T12:49:30.813Z,5.38
2023-03-28T12:50:30.791Z,6.03
2023-03-28T12:51:30.789Z,6.03
2023-03-28T12:52:30.817Z,5.71
2023-03-28T12:53:30.759Z,5.38
2023-03-28T12:54:30.757Z,5.38
2023-03-28T12:55:30.728Z,5.38
2023-03-28T12:56:30.723Z,5.06
2023-03-28T12:57:36.469Z,5.71
2023-03-28T12:58:30.705Z,5.38
2023-03-28T12:59:30.852Z,6.03
2023-03-28T13:00:30.676Z,5.71
2023-03-28T13:01:30.696Z,5.38
2023-03-28T13:02:30.686Z,5.38
2023-03-28T13:03:30.636Z,5.38
2023-03-28T13:04:30.630Z,6.03
2023-03-28T13:05:30.610Z,5.71
2023-03-28T13:06:30.603Z,6.03
2023-03-28T13:07:30.580Z,5.38
2023-03-28T13:08:30.607Z,5.38
2023-03-28T13:09:30.559Z,5.06
2023-03-28T13:10:30.541Z,5.06
2023-03-28T13:11:30.539Z,5.71
2023-03-28T13:12:30.536Z,5.38
2023-03-28T13:13:30.516Z,6.03
2023-03-28T13:14:30.530Z,5.38
2023-03-28T13:15:30.489Z,5.71
2023-03-28T13:16:30.497Z,5.38
2023-03-28T13:17:30.504Z,5.71
2023-03-28T13:18:30.441Z,5.38